Metar Aviation Weather Data LICT

15°C Temp
13°C Dewpoint
% Humidity
Temperature
11 KM/H
7 MPH
6 KTS
320°
North West

Wind Speed
Partly Cloudy
Conditions
Pressure 1022.92 (hPa) - 30.21 (in)
Visibility 6.2 (mi) - 10 (km)

Current Conditions
LICT
Metar :LICT 240855Z 32006KT 300V360 9999 FEW015 15/13 Q1023 RMK FEW VIS MIN 9999 WIND THR13 31005KT 270V330 BLU
Sun 24th March 10:55 am

  Metar Aviation API Data Provided by https://www.checkwx.com/ PHP scripts by weather34.com ©2019